MSP weather

Public forecast

Using degrees Fahrenheit for public forecast. Weather courtesy of forecast.io.

Current aviation weather report (METAR) for Minneapolis-St Paul International/Wold-Chamberlain Airport

Retrieved 2020/08/10 10:53 UTC (45 minutes ago):

KMSP 101053Z 32007KT 10SM FEW013 BKN210 19/19 A2988 RMK AO2 SLP113 T01940189

Aviation forecast (TAF) for Minneapolis-St Paul International/Wold-Chamberlain Airport

Retrieved 2020/08/10 08:03 UTC (4 hours ago):

TAF COR KMSP 100800Z 1008/1112 20010G15KT 1SM -TSRA BKN020CB FM100900 31008KT P6SM BKN050 FM101100 32010KT P6SM SCT050 BKN200 FM102200 29009KT P6SM FEW100 FM110500 23005KT P6SM SKC